createdAt,value
2023-03-31T00:01:52.622Z,11.72
2023-03-31T00:04:23.870Z,11.77
2023-03-31T00:06:53.859Z,11.77
2023-03-31T00:09:24.508Z,11.68
2023-03-31T00:11:52.226Z,11.74
2023-03-31T00:14:20.262Z,11.71
2023-03-31T00:16:46.666Z,11.64
2023-03-31T00:19:20.550Z,11.67
2023-03-31T00:21:48.771Z,11.71
2023-03-31T00:24:16.256Z,11.50
2023-03-31T00:26:43.204Z,11.53
2023-03-31T00:29:12.527Z,11.46
2023-03-31T00:31:39.016Z,11.49
2023-03-31T00:34:06.127Z,11.46
2023-03-31T00:36:36.358Z,11.42
2023-03-31T00:39:08.826Z,11.43
2023-03-31T00:41:37.520Z,11.59
2023-03-31T00:44:22.552Z,11.51
2023-03-31T00:47:02.117Z,11.48
2023-03-31T00:49:32.998Z,11.60
2023-03-31T00:52:05.542Z,11.50
2023-03-31T00:54:34.052Z,11.58
2023-03-31T00:57:03.412Z,11.63
2023-03-31T00:59:34.594Z,11.52
2023-03-31T01:02:02.851Z,11.52
2023-03-31T01:04:34.852Z,11.56
2023-03-31T01:07:22.872Z,11.54
2023-03-31T01:09:54.186Z,11.56
2023-03-31T01:12:22.093Z,11.49
2023-03-31T01:14:50.461Z,11.52
2023-03-31T01:17:21.428Z,11.47
2023-03-31T01:19:56.809Z,11.36
2023-03-31T01:23:06.938Z,11.44
2023-03-31T01:25:45.582Z,11.37
2023-03-31T01:28:26.445Z,11.41
2023-03-31T01:31:21.762Z,11.30
2023-03-31T01:34:00.707Z,11.39
2023-03-31T01:37:04.561Z,11.48
2023-03-31T01:40:09.769Z,11.47
2023-03-31T01:43:10.983Z,11.41
2023-03-31T01:46:03.900Z,11.37
2023-03-31T01:48:48.101Z,11.34
2023-03-31T01:51:43.498Z,11.35
2023-03-31T01:54:27.825Z,11.35
2023-03-31T01:57:01.886Z,11.35
2023-03-31T01:59:37.796Z,11.39
2023-03-31T02:02:15.796Z,11.42
2023-03-31T02:04:50.897Z,11.40
2023-03-31T02:07:22.272Z,11.39
2023-03-31T02:09:57.233Z,11.48
2023-03-31T02:12:27.450Z,11.41
2023-03-31T02:14:57.173Z,11.46
2023-03-31T02:17:30.268Z,11.57
2023-03-31T02:20:01.440Z,11.40
2023-03-31T02:22:36.078Z,11.40
2023-03-31T02:25:06.228Z,11.36
2023-03-31T02:27:38.972Z,11.41
2023-03-31T02:30:07.490Z,11.43
2023-03-31T02:32:38.772Z,11.18
2023-03-31T02:35:07.947Z,11.26
2023-03-31T02:37:34.693Z,11.21
2023-03-31T02:40:06.318Z,11.20
2023-03-31T02:42:32.652Z,11.18
2023-03-31T02:45:04.809Z,11.23
2023-03-31T02:47:31.388Z,11.29
2023-03-31T02:50:01.429Z,11.29
2023-03-31T02:52:30.934Z,11.37
2023-03-31T02:55:06.581Z,11.03
2023-03-31T02:57:54.874Z,11.04
2023-03-31T03:00:46.985Z,11.02
2023-03-31T03:03:16.364Z,11.08
2023-03-31T03:05:59.170Z,10.94
2023-03-31T03:08:42.209Z,10.95
2023-03-31T03:11:27.137Z,11.09
2023-03-31T03:14:11.987Z,11.03
2023-03-31T03:16:47.867Z,11.04
2023-03-31T03:19:23.367Z,11.05
2023-03-31T03:21:49.903Z,11.14
2023-03-31T03:24:17.787Z,11.18
2023-03-31T03:26:45.485Z,11.19
2023-03-31T03:29:15.697Z,11.07
2023-03-31T03:31:42.720Z,11.03
2023-03-31T03:34:09.701Z,11.04
2023-03-31T03:36:39.669Z,11.07
2023-03-31T03:39:07.614Z,11.03
2023-03-31T03:41:33.970Z,11.11
2023-03-31T03:44:00.899Z,11.08
2023-03-31T03:46:27.507Z,11.08
2023-03-31T03:48:54.084Z,10.95
2023-03-31T03:51:20.532Z,11.02
2023-03-31T03:53:46.955Z,11.10
2023-03-31T03:56:13.571Z,11.04
2023-03-31T03:58:39.837Z,10.98
2023-03-31T04:01:06.667Z,11.03
2023-03-31T04:03:33.060Z,11.02
2023-03-31T04:05:59.388Z,10.94
2023-03-31T04:08:25.742Z,10.92
2023-03-31T04:10:52.089Z,10.99
2023-03-31T04:13:20.057Z,11.01
2023-03-31T04:15:46.769Z,11.13
2023-03-31T04:18:22.858Z,11.10
2023-03-31T04:20:54.705Z,11.01
2023-03-31T04:23:23.367Z,11.03
2023-03-31T04:25:52.628Z,11.11
2023-03-31T04:28:19.901Z,11.10
2023-03-31T04:30:46.232Z,10.99
2023-03-31T04:33:15.317Z,11.00
2023-03-31T04:35:52.516Z,11.02
2023-03-31T04:38:21.439Z,10.92
2023-03-31T04:40:52.116Z,10.86
2023-03-31T04:43:20.323Z,10.99
2023-03-31T04:45:47.041Z,10.92
2023-03-31T04:48:13.522Z,10.80
2023-03-31T04:50:39.885Z,10.84
2023-03-31T04:53:06.518Z,10.89
2023-03-31T04:55:33.337Z,11.08
2023-03-31T04:57:59.735Z,10.89
2023-03-31T05:00:26.622Z,10.84
2023-03-31T05:02:53.103Z,10.85
2023-03-31T05:05:19.624Z,10.80
2023-03-31T05:07:46.125Z,10.78
2023-03-31T05:10:12.811Z,10.77
2023-03-31T05:12:39.873Z,10.82
2023-03-31T05:15:08.073Z,10.74
2023-03-31T05:17:35.680Z,10.79
2023-03-31T05:20:06.060Z,10.78
2023-03-31T05:22:38.295Z,10.72
2023-03-31T05:25:07.249Z,10.58
2023-03-31T05:27:34.153Z,10.68
2023-03-31T05:30:00.567Z,10.69
2023-03-31T05:32:27.418Z,10.64
2023-03-31T05:34:57.027Z,10.57
2023-03-31T05:37:25.046Z,10.61
2023-03-31T05:39:52.125Z,10.61
2023-03-31T05:42:19.664Z,10.58
2023-03-31T05:44:46.018Z,10.67
2023-03-31T05:47:12.398Z,10.64
2023-03-31T05:49:38.717Z,10.52
2023-03-31T05:52:06.912Z,10.30
2023-03-31T05:54:33.381Z,10.36
2023-03-31T05:56:59.876Z,10.32
2023-03-31T05:59:26.377Z,10.20
2023-03-31T06:01:52.762Z,10.36
2023-03-31T06:04:19.141Z,10.28
2023-03-31T06:06:46.019Z,10.33
2023-03-31T06:09:12.323Z,10.22
2023-03-31T06:11:38.866Z,10.38
2023-03-31T06:14:05.516Z,10.39
2023-03-31T06:16:33.101Z,10.47
2023-03-31T06:18:59.808Z,10.46
2023-03-31T06:21:26.093Z,10.47
2023-03-31T06:23:55.852Z,10.35
2023-03-31T06:26:23.428Z,10.45
2023-03-31T06:28:49.813Z,10.42
2023-03-31T06:31:21.716Z,10.47
2023-03-31T06:33:48.765Z,10.38
2023-03-31T06:36:18.091Z,10.41
2023-03-31T06:38:45.966Z,10.48
2023-03-31T06:41:16.453Z,10.45
2023-03-31T06:43:43.079Z,10.50
2023-03-31T06:46:10.086Z,10.21
2023-03-31T06:48:37.067Z,10.23
2023-03-31T06:51:06.052Z,10.17
2023-03-31T06:53:32.494Z,10.07
2023-03-31T06:55:58.810Z,10.24
2023-03-31T06:58:25.776Z,10.17
2023-03-31T07:00:53.082Z,10.16
2023-03-31T07:03:22.389Z,10.23
2023-03-31T07:05:50.450Z,10.21
2023-03-31T07:08:17.703Z,10.25
2023-03-31T07:10:48.664Z,10.37
2023-03-31T07:13:16.626Z,10.37
2023-03-31T07:15:43.150Z,10.42
2023-03-31T07:18:09.646Z,10.47
2023-03-31T07:20:36.226Z,10.50
2023-03-31T07:23:04.854Z,10.52
2023-03-31T07:25:31.626Z,10.55
2023-03-31T07:27:57.961Z,10.50
2023-03-31T07:30:24.567Z,10.53
2023-03-31T07:32:52.270Z,10.57
2023-03-31T07:35:19.223Z,10.62
2023-03-31T07:37:48.072Z,10.83
2023-03-31T07:40:21.013Z,10.76
2023-03-31T07:42:49.378Z,10.85
2023-03-31T07:45:16.565Z,10.74
2023-03-31T07:47:44.536Z,10.75
2023-03-31T07:50:11.024Z,10.74
2023-03-31T07:52:37.345Z,10.89
2023-03-31T07:55:04.659Z,10.91
2023-03-31T07:57:31.113Z,10.96
2023-03-31T07:59:57.504Z,11.03
2023-03-31T08:02:24.193Z,11.30
2023-03-31T08:04:50.820Z,11.34
2023-03-31T08:07:17.276Z,11.38
2023-03-31T08:09:45.586Z,11.44
2023-03-31T08:12:13.958Z,11.54
2023-03-31T08:14:41.603Z,11.64
2023-03-31T08:17:09.535Z,11.72
2023-03-31T08:19:35.898Z,11.63
2023-03-31T08:22:02.905Z,11.72
2023-03-31T08:24:29.217Z,11.83
2023-03-31T08:26:55.840Z,11.79
2023-03-31T08:29:22.138Z,11.88
2023-03-31T08:31:48.440Z,11.89
2023-03-31T08:34:14.966Z,11.86
2023-03-31T08:36:41.361Z,11.90
2023-03-31T08:39:07.781Z,11.88
2023-03-31T08:41:58.664Z,11.92
2023-03-31T08:44:30.924Z,11.96
2023-03-31T08:46:59.876Z,11.86
2023-03-31T08:49:28.056Z,11.88
2023-03-31T08:51:59.620Z,11.89
2023-03-31T08:54:40.415Z,11.92
2023-03-31T08:57:15.809Z,12.01
2023-03-31T08:59:44.154Z,12.10
2023-03-31T09:02:33.332Z,12.26
2023-03-31T09:05:11.387Z,12.31
2023-03-31T09:08:14.443Z,12.32
2023-03-31T09:11:06.396Z,12.37
2023-03-31T09:13:50.742Z,12.61
2023-03-31T09:16:42.333Z,13.04
2023-03-31T09:19:18.250Z,13.31
2023-03-31T09:21:51.735Z,13.38
2023-03-31T09:24:23.523Z,13.30
2023-03-31T09:26:54.681Z,13.24
2023-03-31T09:29:31.260Z,13.21
2023-03-31T09:32:03.206Z,13.08
2023-03-31T09:34:33.253Z,12.82
2023-03-31T09:36:59.930Z,12.86
2023-03-31T09:39:26.288Z,12.81
2023-03-31T09:41:54.114Z,12.70
2023-03-31T09:44:42.018Z,12.55
2023-03-31T09:47:16.620Z,12.51
2023-03-31T09:49:53.766Z,12.44
2023-03-31T09:52:30.807Z,12.51
2023-03-31T09:55:02.443Z,12.51
2023-03-31T09:57:34.023Z,12.51
2023-03-31T10:00:16.989Z,12.53
2023-03-31T10:02:48.462Z,12.38
2023-03-31T10:05:36.165Z,12.48
2023-03-31T10:08:14.532Z,12.42
2023-03-31T10:10:46.580Z,12.46
2023-03-31T10:13:17.246Z,12.40
2023-03-31T10:15:43.667Z,12.36
2023-03-31T10:18:18.587Z,12.34
2023-03-31T10:20:50.480Z,12.38
2023-03-31T10:23:26.825Z,12.36
2023-03-31T10:25:54.222Z,12.38
2023-03-31T10:28:22.532Z,12.40
2023-03-31T10:30:55.836Z,12.41
2023-03-31T10:33:25.731Z,12.64
2023-03-31T10:36:00.262Z,12.90
2023-03-31T10:38:40.531Z,13.36
2023-03-31T10:41:07.497Z,13.66
2023-03-31T10:43:41.386Z,13.59
2023-03-31T10:46:08.387Z,13.55
2023-03-31T10:48:41.392Z,13.32
2023-03-31T10:51:14.946Z,13.32
2023-03-31T10:53:43.849Z,13.38
2023-03-31T10:56:57.919Z,13.41
2023-03-31T10:59:46.682Z,13.35
2023-03-31T11:02:46.489Z,13.32
2023-03-31T11:05:39.974Z,13.14
2023-03-31T11:08:30.555Z,13.09
2023-03-31T11:10:59.544Z,13.12
2023-03-31T11:13:50.608Z,13.13
2023-03-31T11:16:19.798Z,12.99
2023-03-31T11:19:11.509Z,12.92
2023-03-31T11:21:45.904Z,12.96
2023-03-31T11:24:32.738Z,12.90
2023-03-31T11:27:18.177Z,12.93
2023-03-31T11:29:51.197Z,12.85
2023-03-31T11:32:55.344Z,12.80
2023-03-31T11:35:43.635Z,12.87
2023-03-31T11:38:30.088Z,12.83
2023-03-31T11:41:07.879Z,12.68
2023-03-31T11:43:48.548Z,12.37
2023-03-31T11:46:43.830Z,12.17
2023-03-31T11:49:22.592Z,11.97
2023-03-31T11:51:55.645Z,11.95
2023-03-31T11:54:43.628Z,11.88
2023-03-31T11:57:22.100Z,12.00
2023-03-31T11:59:56.026Z,12.21
2023-03-31T12:02:51.164Z,12.57
2023-03-31T12:05:19.233Z,12.77
2023-03-31T12:07:59.515Z,12.99
2023-03-31T12:10:43.648Z,13.32
2023-03-31T12:13:28.656Z,13.40
2023-03-31T12:16:22.009Z,13.44
2023-03-31T12:19:02.362Z,13.23
2023-03-31T12:21:30.744Z,13.01
2023-03-31T12:23:57.139Z,12.84
2023-03-31T12:26:31.004Z,12.66
2023-03-31T12:29:04.464Z,12.48
2023-03-31T12:31:33.184Z,12.50
2023-03-31T12:34:04.757Z,12.60
2023-03-31T12:36:54.862Z,12.68
2023-03-31T12:39:43.037Z,12.70
2023-03-31T12:42:35.614Z,12.72
2023-03-31T12:45:06.530Z,12.43
2023-03-31T12:47:59.167Z,12.34
2023-03-31T12:50:57.791Z,12.12
2023-03-31T12:53:42.133Z,11.96
2023-03-31T12:56:08.859Z,11.95
2023-03-31T12:58:40.700Z,12.04
2023-03-31T13:01:23.621Z,12.16
2023-03-31T13:04:20.170Z,12.24
2023-03-31T13:06:54.866Z,12.25
2023-03-31T13:09:33.031Z,12.27
2023-03-31T13:12:07.513Z,12.41
2023-03-31T13:14:38.854Z,12.43
2023-03-31T13:17:27.117Z,12.73
2023-03-31T13:19:55.226Z,13.00
2023-03-31T13:22:36.435Z,13.43
2023-03-31T13:25:21.272Z,13.71
2023-03-31T13:27:50.744Z,13.65
2023-03-31T13:30:36.095Z,13.43
2023-03-31T13:33:12.634Z,13.19
2023-03-31T13:35:42.506Z,12.98
2023-03-31T13:38:18.139Z,12.90
2023-03-31T13:41:15.237Z,12.68
2023-03-31T13:44:12.216Z,12.80
2023-03-31T13:46:55.695Z,13.41
2023-03-31T13:49:47.073Z,13.79
2023-03-31T13:52:13.725Z,14.25
2023-03-31T13:54:58.276Z,14.45
2023-03-31T13:57:44.077Z,14.49
2023-03-31T14:00:25.203Z,14.45
2023-03-31T14:03:15.798Z,14.50
2023-03-31T14:05:47.338Z,14.22
2023-03-31T14:08:39.679Z,14.14
2023-03-31T14:11:26.288Z,13.99
2023-03-31T14:14:11.090Z,13.87
2023-03-31T14:16:53.929Z,13.84
2023-03-31T14:19:39.127Z,13.87
2023-03-31T14:22:19.275Z,13.89
2023-03-31T14:24:51.670Z,13.92
2023-03-31T14:27:47.412Z,14.02
2023-03-31T14:30:52.633Z,14.12
2023-03-31T14:33:32.089Z,14.01
2023-03-31T14:36:05.416Z,14.06
2023-03-31T14:38:32.101Z,14.01
2023-03-31T14:41:01.061Z,13.92
2023-03-31T14:43:33.419Z,13.94
2023-03-31T14:46:08.196Z,13.84
2023-03-31T14:48:49.244Z,13.84
2023-03-31T14:51:18.375Z,13.69
2023-03-31T14:53:44.762Z,13.60
2023-03-31T14:56:24.708Z,13.17
2023-03-31T14:58:53.057Z,12.94
2023-03-31T15:01:25.343Z,12.74
2023-03-31T15:03:53.736Z,12.63
2023-03-31T15:06:20.304Z,12.49
2023-03-31T15:08:47.013Z,12.36
2023-03-31T15:11:19.521Z,12.22
2023-03-31T15:14:03.434Z,12.23
2023-03-31T15:16:45.330Z,12.21
2023-03-31T15:19:23.496Z,12.29
2023-03-31T15:22:10.463Z,12.30
2023-03-31T15:24:36.849Z,12.19
2023-03-31T15:27:10.506Z,12.23
2023-03-31T15:29:41.489Z,12.27
2023-03-31T15:32:34.883Z,12.23
2023-03-31T15:35:20.695Z,12.23
2023-03-31T15:37:51.907Z,12.14
2023-03-31T15:40:31.312Z,12.15
2023-03-31T15:43:06.965Z,12.09
2023-03-31T15:45:47.309Z,12.08
2023-03-31T15:48:29.974Z,12.11
2023-03-31T15:51:07.930Z,12.05
2023-03-31T15:53:45.912Z,12.07
2023-03-31T15:56:34.856Z,12.03
2023-03-31T15:59:06.692Z,12.04
2023-03-31T16:01:38.713Z,12.02
2023-03-31T16:04:14.111Z,12.00
2023-03-31T16:06:43.464Z,11.98
2023-03-31T16:09:28.141Z,11.94
2023-03-31T16:12:01.852Z,11.96
2023-03-31T16:14:43.470Z,12.03
2023-03-31T16:17:20.930Z,12.05
2023-03-31T16:19:59.938Z,12.05
2023-03-31T16:22:35.343Z,12.11
2023-03-31T16:25:01.919Z,12.06
2023-03-31T16:27:28.485Z,12.10
2023-03-31T16:30:09.993Z,12.17
2023-03-31T16:32:36.397Z,12.19
2023-03-31T16:35:05.924Z,12.14
2023-03-31T16:37:32.386Z,12.11
2023-03-31T16:39:58.707Z,11.96
2023-03-31T16:42:25.796Z,12.02
2023-03-31T16:45:09.717Z,12.01
2023-03-31T16:47:38.621Z,12.05
2023-03-31T16:50:07.326Z,12.04
2023-03-31T16:52:34.071Z,11.93
2023-03-31T16:55:01.213Z,12.01
2023-03-31T16:57:28.000Z,11.98
2023-03-31T16:59:56.119Z,12.03
2023-03-31T17:02:23.947Z,12.04
2023-03-31T17:04:50.797Z,12.09
2023-03-31T17:07:18.727Z,11.94
2023-03-31T17:09:45.140Z,11.96
2023-03-31T17:12:11.452Z,12.00
2023-03-31T17:14:38.058Z,11.96
2023-03-31T17:17:04.406Z,11.99
2023-03-31T17:19:31.428Z,11.90
2023-03-31T17:22:01.691Z,11.93
2023-03-31T17:24:28.114Z,11.96
2023-03-31T17:26:54.617Z,11.95
2023-03-31T17:29:21.231Z,11.93
2023-03-31T17:31:47.582Z,11.91
2023-03-31T17:34:13.908Z,11.76
2023-03-31T17:36:41.833Z,11.81
2023-03-31T17:39:08.334Z,11.95
2023-03-31T17:41:34.675Z,11.91
2023-03-31T17:44:01.091Z,11.86
2023-03-31T17:46:27.584Z,11.86
2023-03-31T17:48:56.299Z,11.92
2023-03-31T17:51:23.028Z,11.93
2023-03-31T17:53:49.519Z,11.85
2023-03-31T17:56:17.584Z,11.88
2023-03-31T17:58:44.250Z,11.89
2023-03-31T18:01:11.673Z,11.80
2023-03-31T18:03:38.235Z,11.84
2023-03-31T18:06:14.536Z,11.85
2023-03-31T18:08:42.093Z,11.83
2023-03-31T18:11:09.518Z,11.85
2023-03-31T18:13:37.014Z,11.79
2023-03-31T18:16:04.334Z,11.87
2023-03-31T18:18:30.744Z,11.84
2023-03-31T18:21:03.384Z,11.81
2023-03-31T18:23:29.840Z,11.75
2023-03-31T18:25:56.539Z,11.74
2023-03-31T18:28:22.914Z,11.72
2023-03-31T18:30:49.274Z,11.73
2023-03-31T18:33:16.416Z,11.65
2023-03-31T18:35:43.801Z,11.59
2023-03-31T18:38:10.151Z,11.66
2023-03-31T18:40:36.791Z,11.65
2023-03-31T18:43:03.612Z,11.65
2023-03-31T18:45:30.702Z,11.65
2023-03-31T18:47:57.730Z,11.71
2023-03-31T18:50:24.186Z,11.69
2023-03-31T18:52:54.473Z,11.84
2023-03-31T18:55:21.830Z,11.77
2023-03-31T18:57:48.170Z,11.74
2023-03-31T19:00:15.254Z,11.62
2023-03-31T19:02:42.005Z,11.56
2023-03-31T19:05:08.930Z,11.60
2023-03-31T19:07:35.749Z,11.62
2023-03-31T19:10:02.302Z,11.64
2023-03-31T19:12:28.888Z,11.71
2023-03-31T19:14:55.288Z,11.58
2023-03-31T19:17:21.626Z,11.64
2023-03-31T19:19:48.575Z,11.59
2023-03-31T19:22:15.333Z,11.56
2023-03-31T19:24:42.265Z,11.44
2023-03-31T19:27:10.780Z,11.40
2023-03-31T19:29:37.081Z,11.46
2023-03-31T19:32:03.754Z,11.42
2023-03-31T19:34:30.165Z,11.45
2023-03-31T19:36:56.580Z,11.46
2023-03-31T19:39:23.009Z,11.44
2023-03-31T19:41:49.308Z,11.42
2023-03-31T19:44:15.649Z,11.47
2023-03-31T19:46:42.005Z,11.44
2023-03-31T19:49:09.294Z,11.41
2023-03-31T19:51:35.981Z,11.38
2023-03-31T19:54:02.292Z,11.34
2023-03-31T19:56:31.300Z,11.33
2023-03-31T19:58:59.112Z,11.41
2023-03-31T20:01:27.774Z,11.36
2023-03-31T20:03:54.562Z,11.40
2023-03-31T20:06:23.997Z,11.39
2023-03-31T20:08:59.859Z,11.42
2023-03-31T20:11:28.199Z,11.45
2023-03-31T20:13:55.779Z,11.32
2023-03-31T20:16:24.857Z,11.48
2023-03-31T20:18:53.258Z,11.26
2023-03-31T20:21:21.104Z,11.35
2023-03-31T20:23:48.004Z,11.28
2023-03-31T20:26:18.452Z,11.33
2023-03-31T20:28:46.478Z,11.40
2023-03-31T20:31:19.446Z,11.32
2023-03-31T20:33:46.626Z,11.26
2023-03-31T20:36:18.098Z,11.32
2023-03-31T20:38:47.319Z,11.38
2023-03-31T20:41:14.482Z,11.32
2023-03-31T20:43:41.090Z,11.35
2023-03-31T20:46:09.029Z,11.34
2023-03-31T20:48:41.384Z,11.29
2023-03-31T20:51:10.170Z,11.26
2023-03-31T20:53:41.867Z,11.25
2023-03-31T20:56:09.684Z,11.37
2023-03-31T20:58:36.430Z,11.31
2023-03-31T21:01:03.144Z,11.27
2023-03-31T21:03:29.598Z,11.30
2023-03-31T21:05:55.976Z,11.27
2023-03-31T21:08:22.335Z,11.22
2023-03-31T21:10:48.623Z,11.26
2023-03-31T21:13:16.334Z,11.18
2023-03-31T21:15:47.561Z,11.26
2023-03-31T21:18:16.511Z,11.14
2023-03-31T21:20:54.163Z,11.18
2023-03-31T21:23:22.019Z,11.11
2023-03-31T21:25:54.031Z,11.12
2023-03-31T21:28:22.534Z,11.18
2023-03-31T21:30:57.801Z,11.16
2023-03-31T21:33:25.029Z,11.24
2023-03-31T21:35:52.741Z,11.28
2023-03-31T21:38:20.010Z,11.24
2023-03-31T21:40:47.674Z,11.20
2023-03-31T21:43:14.668Z,11.23
2023-03-31T21:45:41.638Z,11.10
2023-03-31T21:48:10.018Z,11.13
2023-03-31T21:50:37.685Z,11.24
2023-03-31T21:53:05.288Z,11.19
2023-03-31T21:55:33.184Z,11.10
2023-03-31T21:58:00.047Z,11.17
2023-03-31T22:00:27.913Z,10.99
2023-03-31T22:03:06.292Z,11.04
2023-03-31T22:05:37.619Z,11.04
2023-03-31T22:08:03.956Z,11.11
2023-03-31T22:10:30.269Z,11.19
2023-03-31T22:12:56.668Z,11.09
2023-03-31T22:15:23.170Z,11.02
2023-03-31T22:17:49.535Z,11.10
2023-03-31T22:20:15.966Z,11.08
2023-03-31T22:22:42.250Z,11.05
2023-03-31T22:25:08.872Z,10.96
2023-03-31T22:27:35.780Z,11.02
2023-03-31T22:30:02.638Z,11.05
2023-03-31T22:32:28.958Z,11.07
2023-03-31T22:34:55.394Z,11.07
2023-03-31T22:37:21.750Z,11.00
2023-03-31T22:39:48.099Z,10.95
2023-03-31T22:42:14.431Z,11.00
2023-03-31T22:44:41.126Z,11.05
2023-03-31T22:47:07.889Z,10.91
2023-03-31T22:49:34.427Z,10.94
2023-03-31T22:52:00.801Z,10.95
2023-03-31T22:54:27.168Z,10.88
2023-03-31T22:56:54.184Z,11.06
2023-03-31T22:59:20.832Z,10.99
2023-03-31T23:01:52.795Z,10.91
2023-03-31T23:04:20.293Z,10.73
2023-03-31T23:06:47.195Z,10.96
2023-03-31T23:09:13.534Z,10.92
2023-03-31T23:11:39.896Z,10.97
2023-03-31T23:14:06.443Z,11.00
2023-03-31T23:16:33.464Z,10.93
2023-03-31T23:18:59.853Z,10.95
2023-03-31T23:21:27.506Z,11.06
2023-03-31T23:23:56.386Z,10.91
2023-03-31T23:26:25.308Z,10.96
2023-03-31T23:28:52.929Z,10.95
2023-03-31T23:31:22.725Z,10.99
2023-03-31T23:33:49.694Z,10.96
2023-03-31T23:36:17.917Z,11.00
2023-03-31T23:38:45.492Z,10.96
2023-03-31T23:41:12.182Z,10.94
2023-03-31T23:43:39.403Z,10.90
2023-03-31T23:46:06.960Z,10.83
2023-03-31T23:48:35.184Z,10.89
2023-03-31T23:51:02.049Z,10.92
2023-03-31T23:53:28.808Z,10.87
2023-03-31T23:55:57.719Z,10.99
2023-03-31T23:58:26.081Z,10.96
